sensor_id;sensor_type;location;lat;lon;timestamp;P1;durP1;ratioP1;P2;durP2;ratioP2
41343;SDS011;27089;50.022;7.604;2023-02-01T00:01:18;8.20;;;6.60;;
41343;SDS011;27089;50.022;7.604;2023-02-01T00:03:45;8.13;;;6.63;;
41343;SDS011;27089;50.022;7.604;2023-02-01T00:06:12;11.23;;;7.83;;
41343;SDS011;27089;50.022;7.604;2023-02-01T00:08:39;11.10;;;7.70;;
41343;SDS011;27089;50.022;7.604;2023-02-01T00:11:07;10.13;;;7.53;;
41343;SDS011;27089;50.022;7.604;2023-02-01T00:13:37;11.97;;;7.60;;
41343;SDS011;27089;50.022;7.604;2023-02-01T00:16:06;9.83;;;7.43;;
41343;SDS011;27089;50.022;7.604;2023-02-01T00:18:34;10.27;;;7.83;;
41343;SDS011;27089;50.022;7.604;2023-02-01T00:21:01;17.20;;;11.93;;
41343;SDS011;27089;50.022;7.604;2023-02-01T00:23:31;16.57;;;11.60;;
41343;SDS011;27089;50.022;7.604;2023-02-01T00:25:59;11.97;;;9.03;;
41343;SDS011;27089;50.022;7.604;2023-02-01T00:28:27;11.63;;;8.30;;
41343;SDS011;27089;50.022;7.604;2023-02-01T00:30:58;10.43;;;7.73;;
41343;SDS011;27089;50.022;7.604;2023-02-01T00:33:26;10.50;;;7.67;;
41343;SDS011;27089;50.022;7.604;2023-02-01T00:35:55;10.03;;;7.30;;
41343;SDS011;27089;50.022;7.604;2023-02-01T00:38:23;10.57;;;7.60;;
41343;SDS011;27089;50.022;7.604;2023-02-01T00:40:50;11.53;;;8.00;;
41343;SDS011;27089;50.022;7.604;2023-02-01T00:43:17;11.90;;;7.93;;
41343;SDS011;27089;50.022;7.604;2023-02-01T00:45:45;9.90;;;7.47;;
41343;SDS011;27089;50.022;7.604;2023-02-01T00:48:13;10.00;;;7.37;;
41343;SDS011;27089;50.022;7.604;2023-02-01T00:50:41;11.80;;;7.10;;
41343;SDS011;27089;50.022;7.604;2023-02-01T00:53:08;10.17;;;7.17;;
41343;SDS011;27089;50.022;7.604;2023-02-01T00:55:35;7.57;;;6.17;;
41343;SDS011;27089;50.022;7.604;2023-02-01T00:58:02;9.27;;;5.90;;
41343;SDS011;27089;50.022;7.604;2023-02-01T01:00:30;8.77;;;6.53;;
41343;SDS011;27089;50.022;7.604;2023-02-01T01:02:57;7.80;;;5.97;;
41343;SDS011;27089;50.022;7.604;2023-02-01T01:05:26;6.90;;;5.73;;
41343;SDS011;27089;50.022;7.604;2023-02-01T01:07:53;8.97;;;6.87;;
41343;SDS011;27089;50.022;7.604;2023-02-01T01:10:20;8.60;;;6.40;;
41343;SDS011;27089;50.022;7.604;2023-02-01T01:12:47;8.60;;;6.40;;
41343;SDS011;27089;50.022;7.604;2023-02-01T01:15:15;8.13;;;5.50;;
41343;SDS011;27089;50.022;7.604;2023-02-01T01:17:42;8.00;;;5.20;;
41343;SDS011;27089;50.022;7.604;2023-02-01T01:20:10;7.43;;;5.27;;
41343;SDS011;27089;50.022;7.604;2023-02-01T01:22:39;8.70;;;5.50;;
41343;SDS011;27089;50.022;7.604;2023-02-01T01:25:06;6.60;;;5.40;;
41343;SDS011;27089;50.022;7.604;2023-02-01T01:27:34;7.53;;;5.13;;
41343;SDS011;27089;50.022;7.604;2023-02-01T01:30:02;9.40;;;5.53;;
41343;SDS011;27089;50.022;7.604;2023-02-01T01:32:29;7.20;;;5.57;;
41343;SDS011;27089;50.022;7.604;2023-02-01T01:34:56;8.13;;;5.67;;
41343;SDS011;27089;50.022;7.604;2023-02-01T01:37:23;7.67;;;5.37;;
41343;SDS011;27089;50.022;7.604;2023-02-01T01:39:51;7.10;;;5.30;;
41343;SDS011;27089;50.022;7.604;2023-02-01T01:42:20;6.17;;;5.10;;
41343;SDS011;27089;50.022;7.604;2023-02-01T01:44:57;7.63;;;5.10;;
41343;SDS011;27089;50.022;7.604;2023-02-01T01:47:26;6.97;;;4.67;;
41343;SDS011;27089;50.022;7.604;2023-02-01T01:49:57;7.73;;;4.80;;
41343;SDS011;27089;50.022;7.604;2023-02-01T01:52:24;6.77;;;4.90;;
41343;SDS011;27089;50.022;7.604;2023-02-01T01:54:53;5.73;;;3.80;;
41343;SDS011;27089;50.022;7.604;2023-02-01T01:57:21;6.17;;;4.00;;
41343;SDS011;27089;50.022;7.604;2023-02-01T01:59:53;4.63;;;3.67;;
41343;SDS011;27089;50.022;7.604;2023-02-01T02:02:25;4.37;;;3.70;;
41343;SDS011;27089;50.022;7.604;2023-02-01T02:04:52;5.30;;;3.53;;
41343;SDS011;27089;50.022;7.604;2023-02-01T02:07:21;4.70;;;3.07;;
41343;SDS011;27089;50.022;7.604;2023-02-01T02:09:53;4.87;;;3.30;;
41343;SDS011;27089;50.022;7.604;2023-02-01T02:12:20;5.00;;;3.33;;
41343;SDS011;27089;50.022;7.604;2023-02-01T02:14:47;3.80;;;3.40;;
41343;SDS011;27089;50.022;7.604;2023-02-01T02:17:19;4.17;;;3.17;;
41343;SDS011;27089;50.022;7.604;2023-02-01T02:23:18;3.53;;;3.10;;
41343;SDS011;27089;50.022;7.604;2023-02-01T02:32:38;4.90;;;3.63;;
41343;SDS011;27089;50.022;7.604;2023-02-01T02:35:26;5.80;;;2.97;;
41343;SDS011;27089;50.022;7.604;2023-02-01T02:37:58;4.40;;;3.20;;
41343;SDS011;27089;50.022;7.604;2023-02-01T02:40:36;4.40;;;3.70;;
41343;SDS011;27089;50.022;7.604;2023-02-01T02:43:14;6.27;;;3.70;;
41343;SDS011;27089;50.022;7.604;2023-02-01T02:46:06;7.07;;;3.77;;
41343;SDS011;27089;50.022;7.604;2023-02-01T02:49:00;6.50;;;3.70;;
41343;SDS011;27089;50.022;7.604;2023-02-01T02:51:34;5.77;;;4.43;;
41343;SDS011;27089;50.022;7.604;2023-02-01T02:54:25;5.43;;;3.60;;
41343;SDS011;27089;50.022;7.604;2023-02-01T02:57:18;7.57;;;3.80;;
41343;SDS011;27089;50.022;7.604;2023-02-01T03:00:08;9.83;;;4.53;;
41343;SDS011;27089;50.022;7.604;2023-02-01T03:02:55;6.37;;;3.73;;
41343;SDS011;27089;50.022;7.604;2023-02-01T03:05:40;6.93;;;4.10;;
41343;SDS011;27089;50.022;7.604;2023-02-01T03:08:12;5.03;;;3.73;;
41343;SDS011;27089;50.022;7.604;2023-02-01T03:10:42;10.80;;;4.47;;
41343;SDS011;27089;50.022;7.604;2023-02-01T03:13:14;10.43;;;4.37;;
41343;SDS011;27089;50.022;7.604;2023-02-01T03:15:46;11.67;;;4.10;;
41343;SDS011;27089;50.022;7.604;2023-02-01T03:18:22;9.67;;;4.10;;
41343;SDS011;27089;50.022;7.604;2023-02-01T03:20:54;7.77;;;4.17;;
41343;SDS011;27089;50.022;7.604;2023-02-01T03:23:27;9.13;;;4.20;;
41343;SDS011;27089;50.022;7.604;2023-02-01T03:25:58;7.27;;;4.00;;
41343;SDS011;27089;50.022;7.604;2023-02-01T03:28:27;8.30;;;4.23;;
41343;SDS011;27089;50.022;7.604;2023-02-01T03:30:57;5.00;;;3.80;;
41343;SDS011;27089;50.022;7.604;2023-02-01T03:33:25;11.87;;;4.60;;
41343;SDS011;27089;50.022;7.604;2023-02-01T03:35:57;7.80;;;4.13;;
41343;SDS011;27089;50.022;7.604;2023-02-01T03:38:31;7.33;;;3.80;;
41343;SDS011;27089;50.022;7.604;2023-02-01T03:41:06;8.30;;;3.77;;
41343;SDS011;27089;50.022;7.604;2023-02-01T03:43:38;8.63;;;3.77;;
41343;SDS011;27089;50.022;7.604;2023-02-01T03:46:14;7.87;;;3.80;;
41343;SDS011;27089;50.022;7.604;2023-02-01T03:48:46;8.33;;;3.13;;
41343;SDS011;27089;50.022;7.604;2023-02-01T03:51:16;10.27;;;3.50;;
41343;SDS011;27089;50.022;7.604;2023-02-01T03:53:47;6.23;;;3.00;;
41343;SDS011;27089;50.022;7.604;2023-02-01T03:56:15;4.90;;;2.87;;
41343;SDS011;27089;50.022;7.604;2023-02-01T03:58:45;8.90;;;3.30;;
41343;SDS011;27089;50.022;7.604;2023-02-01T04:01:24;8.37;;;2.93;;
41343;SDS011;27089;50.022;7.604;2023-02-01T04:03:52;5.00;;;2.70;;
41343;SDS011;27089;50.022;7.604;2023-02-01T04:06:19;6.03;;;2.70;;
41343;SDS011;27089;50.022;7.604;2023-02-01T04:08:50;6.17;;;3.20;;
41343;SDS011;27089;50.022;7.604;2023-02-01T04:11:17;8.27;;;3.03;;
41343;SDS011;27089;50.022;7.604;2023-02-01T04:13:44;9.43;;;3.23;;
41343;SDS011;27089;50.022;7.604;2023-02-01T04:16:11;10.03;;;3.73;;
41343;SDS011;27089;50.022;7.604;2023-02-01T04:18:39;7.70;;;3.43;;
41343;SDS011;27089;50.022;7.604;2023-02-01T04:21:06;7.23;;;3.43;;
41343;SDS011;27089;50.022;7.604;2023-02-01T04:23:32;7.83;;;3.63;;
41343;SDS011;27089;50.022;7.604;2023-02-01T04:26:03;8.37;;;2.93;;
41343;SDS011;27089;50.022;7.604;2023-02-01T04:28:30;7.30;;;3.30;;
41343;SDS011;27089;50.022;7.604;2023-02-01T04:30:57;9.10;;;3.40;;
41343;SDS011;27089;50.022;7.604;2023-02-01T04:33:24;8.40;;;3.20;;
41343;SDS011;27089;50.022;7.604;2023-02-01T04:35:51;6.87;;;2.70;;
41343;SDS011;27089;50.022;7.604;2023-02-01T04:38:19;10.30;;;3.37;;
41343;SDS011;27089;50.022;7.604;2023-02-01T04:40:46;7.70;;;3.70;;
41343;SDS011;27089;50.022;7.604;2023-02-01T04:43:16;8.83;;;3.30;;
41343;SDS011;27089;50.022;7.604;2023-02-01T04:45:46;6.47;;;3.63;;
41343;SDS011;27089;50.022;7.604;2023-02-01T04:48:14;9.20;;;3.30;;
41343;SDS011;27089;50.022;7.604;2023-02-01T04:50:42;13.27;;;3.30;;
41343;SDS011;27089;50.022;7.604;2023-02-01T04:53:10;8.90;;;3.13;;
41343;SDS011;27089;50.022;7.604;2023-02-01T04:55:37;10.10;;;3.47;;
41343;SDS011;27089;50.022;7.604;2023-02-01T04:58:04;9.33;;;3.40;;
41343;SDS011;27089;50.022;7.604;2023-02-01T05:00:32;9.00;;;3.43;;
41343;SDS011;27089;50.022;7.604;2023-02-01T05:02:59;8.90;;;3.10;;
41343;SDS011;27089;50.022;7.604;2023-02-01T05:05:26;8.30;;;3.40;;
41343;SDS011;27089;50.022;7.604;2023-02-01T05:07:54;11.07;;;3.83;;
41343;SDS011;27089;50.022;7.604;2023-02-01T05:10:21;10.10;;;3.37;;
41343;SDS011;27089;50.022;7.604;2023-02-01T05:12:48;10.60;;;3.70;;
41343;SDS011;27089;50.022;7.604;2023-02-01T05:15:34;9.73;;;3.70;;
41343;SDS011;27089;50.022;7.604;2023-02-01T05:18:01;11.07;;;3.93;;
41343;SDS011;27089;50.022;7.604;2023-02-01T05:20:28;12.47;;;3.83;;
41343;SDS011;27089;50.022;7.604;2023-02-01T05:22:55;11.27;;;3.93;;
41343;SDS011;27089;50.022;7.604;2023-02-01T05:25:22;10.63;;;4.30;;
41343;SDS011;27089;50.022;7.604;2023-02-01T05:27:49;23.90;;;11.03;;
41343;SDS011;27089;50.022;7.604;2023-02-01T05:30:16;18.93;;;8.03;;
41343;SDS011;27089;50.022;7.604;2023-02-01T05:32:45;34.77;;;13.30;;
41343;SDS011;27089;50.022;7.604;2023-02-01T05:35:16;9.73;;;4.37;;
41343;SDS011;27089;50.022;7.604;2023-02-01T05:37:43;10.13;;;4.20;;
41343;SDS011;27089;50.022;7.604;2023-02-01T05:40:10;8.53;;;3.30;;
41343;SDS011;27089;50.022;7.604;2023-02-01T05:42:37;8.57;;;3.20;;
41343;SDS011;27089;50.022;7.604;2023-02-01T05:45:05;8.57;;;2.93;;
41343;SDS011;27089;50.022;7.604;2023-02-01T05:47:33;10.03;;;3.40;;
41343;SDS011;27089;50.022;7.604;2023-02-01T05:50:02;8.63;;;3.50;;
41343;SDS011;27089;50.022;7.604;2023-02-01T05:52:30;7.23;;;2.57;;
41343;SDS011;27089;50.022;7.604;2023-02-01T05:54:57;11.87;;;3.33;;
41343;SDS011;27089;50.022;7.604;2023-02-01T05:57:24;8.57;;;4.03;;
41343;SDS011;27089;50.022;7.604;2023-02-01T05:59:51;8.97;;;4.27;;
41343;SDS011;27089;50.022;7.604;2023-02-01T06:02:18;4.67;;;2.80;;
41343;SDS011;27089;50.022;7.604;2023-02-01T06:04:45;5.90;;;3.00;;
41343;SDS011;27089;50.022;7.604;2023-02-01T06:07:14;7.80;;;4.60;;
41343;SDS011;27089;50.022;7.604;2023-02-01T06:09:41;18.77;;;7.57;;
41343;SDS011;27089;50.022;7.604;2023-02-01T06:12:08;18.17;;;8.27;;
41343;SDS011;27089;50.022;7.604;2023-02-01T06:14:35;17.47;;;7.13;;
41343;SDS011;27089;50.022;7.604;2023-02-01T06:17:02;11.63;;;6.47;;
41343;SDS011;27089;50.022;7.604;2023-02-01T06:19:30;14.57;;;6.73;;
41343;SDS011;27089;50.022;7.604;2023-02-01T06:21:57;16.40;;;7.23;;
41343;SDS011;27089;50.022;7.604;2023-02-01T06:24:26;18.30;;;8.03;;
41343;SDS011;27089;50.022;7.604;2023-02-01T06:26:54;16.53;;;7.80;;
41343;SDS011;27089;50.022;7.604;2023-02-01T06:29:21;19.67;;;8.53;;
41343;SDS011;27089;50.022;7.604;2023-02-01T06:31:48;12.93;;;5.47;;
41343;SDS011;27089;50.022;7.604;2023-02-01T06:34:15;12.77;;;4.37;;
41343;SDS011;27089;50.022;7.604;2023-02-01T06:36:43;12.83;;;4.50;;
41343;SDS011;27089;50.022;7.604;2023-02-01T06:39:10;13.00;;;5.00;;
41343;SDS011;27089;50.022;7.604;2023-02-01T06:41:44;15.90;;;4.70;;
41343;SDS011;27089;50.022;7.604;2023-02-01T06:44:12;17.13;;;4.23;;
41343;SDS011;27089;50.022;7.604;2023-02-01T06:46:40;14.00;;;4.50;;
41343;SDS011;27089;50.022;7.604;2023-02-01T06:49:07;11.03;;;3.83;;
41343;SDS011;27089;50.022;7.604;2023-02-01T06:51:34;12.03;;;4.57;;
41343;SDS011;27089;50.022;7.604;2023-02-01T06:54:01;12.43;;;4.70;;
41343;SDS011;27089;50.022;7.604;2023-02-01T06:56:28;14.60;;;5.27;;
41343;SDS011;27089;50.022;7.604;2023-02-01T06:58:57;20.37;;;5.20;;
41343;SDS011;27089;50.022;7.604;2023-02-01T07:01:25;10.70;;;4.13;;
41343;SDS011;27089;50.022;7.604;2023-02-01T07:03:52;12.70;;;4.10;;
41343;SDS011;27089;50.022;7.604;2023-02-01T07:06:20;15.33;;;5.10;;
41343;SDS011;27089;50.022;7.604;2023-02-01T07:08:47;14.20;;;4.77;;
41343;SDS011;27089;50.022;7.604;2023-02-01T07:11:15;11.90;;;4.30;;
41343;SDS011;27089;50.022;7.604;2023-02-01T07:13:45;13.40;;;3.83;;
41343;SDS011;27089;50.022;7.604;2023-02-01T07:16:15;16.57;;;4.47;;
41343;SDS011;27089;50.022;7.604;2023-02-01T07:18:43;16.43;;;6.03;;
41343;SDS011;27089;50.022;7.604;2023-02-01T07:21:11;20.53;;;9.13;;
41343;SDS011;27089;50.022;7.604;2023-02-01T07:23:38;22.47;;;9.30;;
41343;SDS011;27089;50.022;7.604;2023-02-01T07:26:06;13.13;;;5.57;;
41343;SDS011;27089;50.022;7.604;2023-02-01T07:28:36;16.57;;;5.60;;
41343;SDS011;27089;50.022;7.604;2023-02-01T07:31:04;17.57;;;4.57;;
41343;SDS011;27089;50.022;7.604;2023-02-01T07:33:34;13.27;;;4.47;;
41343;SDS011;27089;50.022;7.604;2023-02-01T07:36:01;8.97;;;4.10;;
41343;SDS011;27089;50.022;7.604;2023-02-01T07:38:30;9.53;;;4.43;;
41343;SDS011;27089;50.022;7.604;2023-02-01T07:40:57;11.40;;;3.83;;
41343;SDS011;27089;50.022;7.604;2023-02-01T07:43:25;11.73;;;3.87;;
41343;SDS011;27089;50.022;7.604;2023-02-01T07:45:52;11.10;;;3.60;;
41343;SDS011;27089;50.022;7.604;2023-02-01T07:48:20;17.47;;;3.60;;
41343;SDS011;27089;50.022;7.604;2023-02-01T07:50:56;11.87;;;3.87;;
41343;SDS011;27089;50.022;7.604;2023-02-01T07:53:24;11.17;;;3.57;;
41343;SDS011;27089;50.022;7.604;2023-02-01T07:55:51;12.50;;;4.00;;
41343;SDS011;27089;50.022;7.604;2023-02-01T07:58:18;16.47;;;3.80;;
41343;SDS011;27089;50.022;7.604;2023-02-01T08:00:45;14.83;;;3.37;;
41343;SDS011;27089;50.022;7.604;2023-02-01T08:03:30;10.23;;;2.93;;
41343;SDS011;27089;50.022;7.604;2023-02-01T08:05:58;13.10;;;3.17;;
41343;SDS011;27089;50.022;7.604;2023-02-01T08:08:26;10.53;;;3.60;;
41343;SDS011;27089;50.022;7.604;2023-02-01T08:10:56;11.60;;;3.17;;
41343;SDS011;27089;50.022;7.604;2023-02-01T08:13:24;11.47;;;2.73;;
41343;SDS011;27089;50.022;7.604;2023-02-01T08:15:51;9.93;;;3.27;;
41343;SDS011;27089;50.022;7.604;2023-02-01T08:18:18;11.87;;;3.10;;
41343;SDS011;27089;50.022;7.604;2023-02-01T08:20:45;9.80;;;2.93;;
41343;SDS011;27089;50.022;7.604;2023-02-01T08:23:14;13.93;;;3.17;;
41343;SDS011;27089;50.022;7.604;2023-02-01T08:25:41;17.90;;;3.80;;
41343;SDS011;27089;50.022;7.604;2023-02-01T08:28:08;14.70;;;3.60;;
41343;SDS011;27089;50.022;7.604;2023-02-01T08:30:36;10.10;;;3.70;;
41343;SDS011;27089;50.022;7.604;2023-02-01T08:33:03;7.50;;;2.90;;
41343;SDS011;27089;50.022;7.604;2023-02-01T08:35:32;13.40;;;3.57;;
41343;SDS011;27089;50.022;7.604;2023-02-01T08:38:00;12.33;;;3.10;;
41343;SDS011;27089;50.022;7.604;2023-02-01T08:40:29;7.37;;;3.57;;
41343;SDS011;27089;50.022;7.604;2023-02-01T08:42:56;11.77;;;3.33;;
41343;SDS011;27089;50.022;7.604;2023-02-01T08:45:27;13.33;;;3.63;;
41343;SDS011;27089;50.022;7.604;2023-02-01T08:47:55;11.30;;;3.40;;
41343;SDS011;27089;50.022;7.604;2023-02-01T08:50:24;9.77;;;3.00;;
41343;SDS011;27089;50.022;7.604;2023-02-01T08:52:51;10.73;;;3.87;;
41343;SDS011;27089;50.022;7.604;2023-02-01T08:55:19;14.00;;;4.23;;
41343;SDS011;27089;50.022;7.604;2023-02-01T08:57:50;14.60;;;3.83;;
41343;SDS011;27089;50.022;7.604;2023-02-01T09:00:17;11.47;;;3.00;;
41343;SDS011;27089;50.022;7.604;2023-02-01T09:02:45;9.67;;;3.77;;
41343;SDS011;27089;50.022;7.604;2023-02-01T09:05:12;9.37;;;3.20;;
41343;SDS011;27089;50.022;7.604;2023-02-01T09:07:41;14.40;;;3.33;;
41343;SDS011;27089;50.022;7.604;2023-02-01T09:10:08;7.67;;;3.37;;
41343;SDS011;27089;50.022;7.604;2023-02-01T09:12:38;14.07;;;3.33;;
41343;SDS011;27089;50.022;7.604;2023-02-01T09:15:07;13.33;;;3.07;;
41343;SDS011;27089;50.022;7.604;2023-02-01T09:17:35;10.80;;;2.93;;
41343;SDS011;27089;50.022;7.604;2023-02-01T09:20:02;16.43;;;4.50;;
41343;SDS011;27089;50.022;7.604;2023-02-01T09:22:30;8.07;;;2.40;;
41343;SDS011;27089;50.022;7.604;2023-02-01T09:24:57;10.60;;;2.70;;
41343;SDS011;27089;50.022;7.604;2023-02-01T09:27:24;10.80;;;3.00;;
41343;SDS011;27089;50.022;7.604;2023-02-01T09:29:51;13.40;;;2.70;;
41343;SDS011;27089;50.022;7.604;2023-02-01T09:32:20;12.60;;;3.90;;
41343;SDS011;27089;50.022;7.604;2023-02-01T09:34:48;11.70;;;3.37;;
41343;SDS011;27089;50.022;7.604;2023-02-01T09:37:16;13.53;;;2.73;;
41343;SDS011;27089;50.022;7.604;2023-02-01T09:39:43;8.47;;;3.17;;
41343;SDS011;27089;50.022;7.604;2023-02-01T09:42:14;10.27;;;2.37;;
41343;SDS011;27089;50.022;7.604;2023-02-01T09:44:55;14.00;;;2.97;;
41343;SDS011;27089;50.022;7.604;2023-02-01T09:47:31;8.93;;;3.07;;
41343;SDS011;27089;50.022;7.604;2023-02-01T09:50:00;10.23;;;3.07;;
41343;SDS011;27089;50.022;7.604;2023-02-01T09:52:31;10.13;;;2.73;;
41343;SDS011;27089;50.022;7.604;2023-02-01T09:55:06;9.57;;;2.53;;
41343;SDS011;27089;50.022;7.604;2023-02-01T09:57:44;11.17;;;3.23;;
41343;SDS011;27089;50.022;7.604;2023-02-01T10:00:18;9.97;;;2.70;;
41343;SDS011;27089;50.022;7.604;2023-02-01T10:02:50;8.40;;;2.60;;
41343;SDS011;27089;50.022;7.604;2023-02-01T10:05:24;10.00;;;2.73;;
41343;SDS011;27089;50.022;7.604;2023-02-01T10:08:09;10.53;;;3.60;;
41343;SDS011;27089;50.022;7.604;2023-02-01T10:10:43;10.97;;;3.33;;
41343;SDS011;27089;50.022;7.604;2023-02-01T10:13:19;14.20;;;3.93;;
41343;SDS011;27089;50.022;7.604;2023-02-01T10:16:12;14.83;;;3.83;;
41343;SDS011;27089;50.022;7.604;2023-02-01T10:21:46;11.77;;;3.37;;
41343;SDS011;27089;50.022;7.604;2023-02-01T10:24:23;11.27;;;4.27;;
41343;SDS011;27089;50.022;7.604;2023-02-01T10:27:01;13.23;;;3.20;;
41343;SDS011;27089;50.022;7.604;2023-02-01T10:29:36;11.83;;;4.77;;
41343;SDS011;27089;50.022;7.604;2023-02-01T10:32:09;11.07;;;4.87;;
41343;SDS011;27089;50.022;7.604;2023-02-01T10:34:42;16.17;;;5.73;;
41343;SDS011;27089;50.022;7.604;2023-02-01T10:37:18;15.25;;;7.53;;
41343;SDS011;27089;50.022;7.604;2023-02-01T10:39:52;15.77;;;5.30;;
41343;SDS011;27089;50.022;7.604;2023-02-01T10:42:24;12.97;;;3.77;;
41343;SDS011;27089;50.022;7.604;2023-02-01T10:44:52;15.70;;;4.30;;
41343;SDS011;27089;50.022;7.604;2023-02-01T10:47:22;18.37;;;7.13;;
41343;SDS011;27089;50.022;7.604;2023-02-01T10:49:52;13.83;;;4.10;;
41343;SDS011;27089;50.022;7.604;2023-02-01T10:52:29;14.03;;;3.77;;
41343;SDS011;27089;50.022;7.604;2023-02-01T10:58:13;13.30;;;2.90;;
41343;SDS011;27089;50.022;7.604;2023-02-01T11:00:43;13.60;;;3.93;;
41343;SDS011;27089;50.022;7.604;2023-02-01T11:03:22;12.67;;;3.33;;
41343;SDS011;27089;50.022;7.604;2023-02-01T11:06:08;11.77;;;3.90;;
41343;SDS011;27089;50.022;7.604;2023-02-01T11:08:42;11.53;;;3.33;;
41343;SDS011;27089;50.022;7.604;2023-02-01T11:11:11;14.43;;;4.30;;
41343;SDS011;27089;50.022;7.604;2023-02-01T11:13:39;14.93;;;4.60;;
41343;SDS011;27089;50.022;7.604;2023-02-01T11:16:09;16.67;;;3.23;;
41343;SDS011;27089;50.022;7.604;2023-02-01T11:18:40;11.77;;;3.77;;
41343;SDS011;27089;50.022;7.604;2023-02-01T11:21:09;10.50;;;3.57;;
41343;SDS011;27089;50.022;7.604;2023-02-01T11:23:41;11.07;;;3.00;;
41343;SDS011;27089;50.022;7.604;2023-02-01T11:26:12;8.03;;;2.87;;
41343;SDS011;27089;50.022;7.604;2023-02-01T11:28:43;14.40;;;3.33;;
41343;SDS011;27089;50.022;7.604;2023-02-01T11:31:18;13.37;;;3.20;;
41343;SDS011;27089;50.022;7.604;2023-02-01T11:33:47;10.17;;;2.77;;
41343;SDS011;27089;50.022;7.604;2023-02-01T11:36:21;14.70;;;4.07;;
41343;SDS011;27089;50.022;7.604;2023-02-01T11:38:53;20.50;;;5.50;;
41343;SDS011;27089;50.022;7.604;2023-02-01T11:41:34;10.70;;;4.07;;
41343;SDS011;27089;50.022;7.604;2023-02-01T11:44:20;7.37;;;3.27;;
41343;SDS011;27089;50.022;7.604;2023-02-01T11:46:49;16.13;;;3.40;;
41343;SDS011;27089;50.022;7.604;2023-02-01T11:49:23;12.13;;;3.50;;
41343;SDS011;27089;50.022;7.604;2023-02-01T11:51:58;14.10;;;3.60;;
41343;SDS011;27089;50.022;7.604;2023-02-01T11:54:42;11.40;;;3.27;;
41343;SDS011;27089;50.022;7.604;2023-02-01T11:57:24;12.33;;;2.57;;
41343;SDS011;27089;50.022;7.604;2023-02-01T12:00:04;11.87;;;2.50;;
41343;SDS011;27089;50.022;7.604;2023-02-01T12:02:55;7.77;;;2.90;;
41343;SDS011;27089;50.022;7.604;2023-02-01T12:05:36;10.37;;;3.17;;
41343;SDS011;27089;50.022;7.604;2023-02-01T12:08:16;11.53;;;3.07;;
41343;SDS011;27089;50.022;7.604;2023-02-01T12:11:07;11.90;;;2.50;;
41343;SDS011;27089;50.022;7.604;2023-02-01T12:13:46;9.47;;;3.20;;
41343;SDS011;27089;50.022;7.604;2023-02-01T12:16:23;11.93;;;3.17;;
41343;SDS011;27089;50.022;7.604;2023-02-01T12:19:15;14.13;;;3.60;;
41343;SDS011;27089;50.022;7.604;2023-02-01T12:22:08;9.27;;;3.07;;
41343;SDS011;27089;50.022;7.604;2023-02-01T12:24:59;14.90;;;3.10;;
41343;SDS011;27089;50.022;7.604;2023-02-01T12:27:58;13.70;;;3.37;;
41343;SDS011;27089;50.022;7.604;2023-02-01T12:34:03;18.23;;;7.00;;
41343;SDS011;27089;50.022;7.604;2023-02-01T12:36:46;11.80;;;4.03;;
41343;SDS011;27089;50.022;7.604;2023-02-01T12:39:23;11.80;;;3.17;;
41343;SDS011;27089;50.022;7.604;2023-02-01T12:42:00;11.97;;;3.70;;
41343;SDS011;27089;50.022;7.604;2023-02-01T12:44:41;10.07;;;2.67;;
41343;SDS011;27089;50.022;7.604;2023-02-01T12:47:13;6.70;;;2.20;;
41343;SDS011;27089;50.022;7.604;2023-02-01T12:49:47;12.63;;;2.80;;
41343;SDS011;27089;50.022;7.604;2023-02-01T12:52:18;11.00;;;2.80;;
41343;SDS011;27089;50.022;7.604;2023-02-01T12:54:50;7.83;;;2.53;;
41343;SDS011;27089;50.022;7.604;2023-02-01T12:57:26;8.30;;;2.60;;
41343;SDS011;27089;50.022;7.604;2023-02-01T12:59:59;11.50;;;2.23;;
41343;SDS011;27089;50.022;7.604;2023-02-01T13:02:35;5.97;;;2.37;;
41343;SDS011;27089;50.022;7.604;2023-02-01T13:05:12;11.43;;;2.40;;
41343;SDS011;27089;50.022;7.604;2023-02-01T13:07:44;14.63;;;2.63;;
41343;SDS011;27089;50.022;7.604;2023-02-01T13:10:16;11.60;;;2.40;;
41343;SDS011;27089;50.022;7.604;2023-02-01T13:12:49;9.67;;;2.40;;
41343;SDS011;27089;50.022;7.604;2023-02-01T13:15:21;6.17;;;2.23;;
41343;SDS011;27089;50.022;7.604;2023-02-01T13:17:52;10.30;;;2.50;;
41343;SDS011;27089;50.022;7.604;2023-02-01T13:20:23;7.50;;;2.40;;
41343;SDS011;27089;50.022;7.604;2023-02-01T13:22:54;10.17;;;2.80;;
41343;SDS011;27089;50.022;7.604;2023-02-01T13:25:28;10.73;;;2.60;;
41343;SDS011;27089;50.022;7.604;2023-02-01T13:28:02;7.57;;;2.43;;
41343;SDS011;27089;50.022;7.604;2023-02-01T13:30:38;9.53;;;2.87;;
41343;SDS011;27089;50.022;7.604;2023-02-01T13:33:30;10.70;;;2.47;;
41343;SDS011;27089;50.022;7.604;2023-02-01T13:36:20;9.00;;;2.00;;
41343;SDS011;27089;50.022;7.604;2023-02-01T13:39:24;10.83;;;2.53;;
41343;SDS011;27089;50.022;7.604;2023-02-01T13:42:03;7.57;;;2.10;;
41343;SDS011;27089;50.022;7.604;2023-02-01T13:44:42;10.97;;;2.33;;
41343;SDS011;27089;50.022;7.604;2023-02-01T13:47:16;8.27;;;2.00;;
41343;SDS011;27089;50.022;7.604;2023-02-01T13:49:51;9.97;;;2.23;;
41343;SDS011;27089;50.022;7.604;2023-02-01T13:52:23;11.67;;;2.20;;
41343;SDS011;27089;50.022;7.604;2023-02-01T13:55:00;8.37;;;2.33;;
41343;SDS011;27089;50.022;7.604;2023-02-01T13:57:35;5.93;;;2.00;;
41343;SDS011;27089;50.022;7.604;2023-02-01T14:00:22;8.80;;;2.00;;
41343;SDS011;27089;50.022;7.604;2023-02-01T14:03:02;10.37;;;2.17;;
41343;SDS011;27089;50.022;7.604;2023-02-01T14:09:11;13.50;;;3.03;;
41343;SDS011;27089;50.022;7.604;2023-02-01T14:11:56;11.30;;;2.47;;
41343;SDS011;27089;50.022;7.604;2023-02-01T14:23:17;9.07;;;2.30;;
41343;SDS011;27089;50.022;7.604;2023-02-01T14:31:33;7.13;;;2.00;;
41343;SDS011;27089;50.022;7.604;2023-02-01T14:36:55;9.40;;;1.83;;
41343;SDS011;27089;50.022;7.604;2023-02-01T14:39:26;11.37;;;2.17;;
41343;SDS011;27089;50.022;7.604;2023-02-01T14:42:17;9.30;;;2.30;;
41343;SDS011;27089;50.022;7.604;2023-02-01T14:44:48;6.83;;;1.90;;
41343;SDS011;27089;50.022;7.604;2023-02-01T14:50:16;7.90;;;2.37;;
41343;SDS011;27089;50.022;7.604;2023-02-01T14:52:49;9.03;;;2.20;;
41343;SDS011;27089;50.022;7.604;2023-02-01T14:55:19;11.87;;;2.60;;
41343;SDS011;27089;50.022;7.604;2023-02-01T14:57:52;7.27;;;2.13;;
41343;SDS011;27089;50.022;7.604;2023-02-01T15:00:23;7.97;;;2.37;;
41343;SDS011;27089;50.022;7.604;2023-02-01T15:02:53;7.53;;;1.77;;
41343;SDS011;27089;50.022;7.604;2023-02-01T15:08:11;23.57;;;10.80;;
41343;SDS011;27089;50.022;7.604;2023-02-01T15:10:44;9.73;;;2.20;;
41343;SDS011;27089;50.022;7.604;2023-02-01T15:13:20;6.03;;;1.80;;
41343;SDS011;27089;50.022;7.604;2023-02-01T15:16:02;9.93;;;2.27;;
41343;SDS011;27089;50.022;7.604;2023-02-01T15:18:31;7.27;;;1.80;;
41343;SDS011;27089;50.022;7.604;2023-02-01T15:21:01;6.67;;;2.00;;
41343;SDS011;27089;50.022;7.604;2023-02-01T15:23:30;19.23;;;6.20;;
41343;SDS011;27089;50.022;7.604;2023-02-01T15:25:58;15.40;;;5.77;;
41343;SDS011;27089;50.022;7.604;2023-02-01T15:28:26;22.90;;;9.57;;
41343;SDS011;27089;50.022;7.604;2023-02-01T15:30:54;5.50;;;2.57;;
41343;SDS011;27089;50.022;7.604;2023-02-01T15:33:23;10.97;;;3.60;;
41343;SDS011;27089;50.022;7.604;2023-02-01T15:35:52;12.50;;;5.10;;
41343;SDS011;27089;50.022;7.604;2023-02-01T15:38:31;11.83;;;4.40;;
41343;SDS011;27089;50.022;7.604;2023-02-01T15:41:07;12.40;;;4.47;;
41343;SDS011;27089;50.022;7.604;2023-02-01T15:43:39;12.07;;;4.20;;
41343;SDS011;27089;50.022;7.604;2023-02-01T15:46:09;12.53;;;3.30;;
41343;SDS011;27089;50.022;7.604;2023-02-01T15:48:42;9.47;;;3.13;;
41343;SDS011;27089;50.022;7.604;2023-02-01T15:51:13;8.80;;;3.50;;
41343;SDS011;27089;50.022;7.604;2023-02-01T15:53:51;10.30;;;2.70;;